sensor_id;sensor_type;location;lat;lon;timestamp;temperature;humidity
31731;DHT22;18310;55.586;12.286;2022-10-13T00:02:17;14.20;72.00
31731;DHT22;18310;55.586;12.286;2022-10-13T00:05:21;14.20;72.20
31731;DHT22;18310;55.586;12.286;2022-10-13T00:08:25;15.10;72.60
31731;DHT22;18310;55.586;12.286;2022-10-13T00:11:30;13.70;72.00
31731;DHT22;18310;55.586;12.286;2022-10-13T00:14:34;14.10;72.20
31731;DHT22;18310;55.586;12.286;2022-10-13T00:17:37;14.10;72.20
31731;DHT22;18310;55.586;12.286;2022-10-13T00:20:41;14.10;72.40
31731;DHT22;18310;55.586;12.286;2022-10-13T00:23:47;14.10;72.50
31731;DHT22;18310;55.586;12.286;2022-10-13T00:26:51;14.10;73.20
31731;DHT22;18310;55.586;12.286;2022-10-13T00:29:54;14.10;72.60
31731;DHT22;18310;55.586;12.286;2022-10-13T00:32:57;14.10;72.60
31731;DHT22;18310;55.586;12.286;2022-10-13T00:36:01;14.00;72.50
31731;DHT22;18310;55.586;12.286;2022-10-13T00:39:09;14.00;72.50
31731;DHT22;18310;55.586;12.286;2022-10-13T00:42:12;14.00;72.60
31731;DHT22;18310;55.586;12.286;2022-10-13T00:45:22;14.00;72.50
31731;DHT22;18310;55.586;12.286;2022-10-13T00:48:29;14.10;72.70
31731;DHT22;18310;55.586;12.286;2022-10-13T00:51:35;14.00;72.50
31731;DHT22;18310;55.586;12.286;2022-10-13T00:54:44;14.70;72.80
31731;DHT22;18310;55.586;12.286;2022-10-13T00:57:49;14.00;72.50
31731;DHT22;18310;55.586;12.286;2022-10-13T01:00:56;14.00;72.50
31731;DHT22;18310;55.586;12.286;2022-10-13T01:04:00;14.00;72.50
31731;DHT22;18310;55.586;12.286;2022-10-13T01:07:04;14.70;72.90
31731;DHT22;18310;55.586;12.286;2022-10-13T01:10:10;13.90;72.60
31731;DHT22;18310;55.586;12.286;2022-10-13T01:13:19;13.90;72.60
31731;DHT22;18310;55.586;12.286;2022-10-13T01:16:29;13.90;73.30
31731;DHT22;18310;55.586;12.286;2022-10-13T01:27:40;14.00;72.90
31731;DHT22;18310;55.586;12.286;2022-10-13T01:31:00;13.90;73.30
31731;DHT22;18310;55.586;12.286;2022-10-13T01:34:14;14.00;72.90
31731;DHT22;18310;55.586;12.286;2022-10-13T01:37:28;13.90;72.90
31731;DHT22;18310;55.586;12.286;2022-10-13T01:40:40;14.00;72.90
31731;DHT22;18310;55.586;12.286;2022-10-13T01:43:49;14.00;72.90
31731;DHT22;18310;55.586;12.286;2022-10-13T01:47:02;14.10;73.30
31731;DHT22;18310;55.586;12.286;2022-10-13T01:50:08;14.10;72.60
31731;DHT22;18310;55.586;12.286;2022-10-13T01:53:11;14.10;72.60
31731;DHT22;18310;55.586;12.286;2022-10-13T01:56:18;14.10;73.10
31731;DHT22;18310;55.586;12.286;2022-10-13T01:59:23;14.10;72.50
31731;DHT22;18310;55.586;12.286;2022-10-13T02:02:35;14.10;72.60
31731;DHT22;18310;55.586;12.286;2022-10-13T02:05:44;14.10;72.60
31731;DHT22;18310;55.586;12.286;2022-10-13T02:08:56;14.20;72.50
31731;DHT22;18310;55.586;12.286;2022-10-13T02:12:07;14.00;72.30
31731;DHT22;18310;55.586;12.286;2022-10-13T02:15:18;14.20;72.30
31731;DHT22;18310;55.586;12.286;2022-10-13T02:18:29;14.30;72.40
31731;DHT22;18310;55.586;12.286;2022-10-13T02:21:35;14.30;72.30
31731;DHT22;18310;55.586;12.286;2022-10-13T02:24:38;14.30;72.10
31731;DHT22;18310;55.586;12.286;2022-10-13T02:27:42;14.50;72.10
31731;DHT22;18310;55.586;12.286;2022-10-13T02:30:46;14.30;71.90
31731;DHT22;18310;55.586;12.286;2022-10-13T02:33:50;14.40;71.90
31731;DHT22;18310;55.586;12.286;2022-10-13T02:36:55;14.30;71.70
31731;DHT22;18310;55.586;12.286;2022-10-13T02:39:59;15.10;72.30
31731;DHT22;18310;55.586;12.286;2022-10-13T02:43:02;14.20;71.50
31731;DHT22;18310;55.586;12.286;2022-10-13T02:46:07;14.40;71.50
31731;DHT22;18310;55.586;12.286;2022-10-13T02:49:12;14.40;71.50
31731;DHT22;18310;55.586;12.286;2022-10-13T02:52:15;14.00;71.20
31731;DHT22;18310;55.586;12.286;2022-10-13T02:55:19;14.30;71.30
31731;DHT22;18310;55.586;12.286;2022-10-13T02:58:23;14.40;71.20
31731;DHT22;18310;55.586;12.286;2022-10-13T03:01:26;14.40;71.10
31731;DHT22;18310;55.586;12.286;2022-10-13T03:04:36;14.30;71.10
31731;DHT22;18310;55.586;12.286;2022-10-13T03:07:47;14.30;71.00
31731;DHT22;18310;55.586;12.286;2022-10-13T03:10:53;14.20;71.50
31731;DHT22;18310;55.586;12.286;2022-10-13T03:13:56;14.20;71.00
31731;DHT22;18310;55.586;12.286;2022-10-13T03:17:02;14.20;71.10
31731;DHT22;18310;55.586;12.286;2022-10-13T03:20:11;14.20;71.30
31731;DHT22;18310;55.586;12.286;2022-10-13T03:23:14;14.20;71.30
31731;DHT22;18310;55.586;12.286;2022-10-13T03:26:17;14.20;71.30
31731;DHT22;18310;55.586;12.286;2022-10-13T03:29:20;14.20;71.40
31731;DHT22;18310;55.586;12.286;2022-10-13T03:32:25;14.20;71.40
31731;DHT22;18310;55.586;12.286;2022-10-13T03:35:29;14.20;71.40
31731;DHT22;18310;55.586;12.286;2022-10-13T03:38:34;14.20;71.40
31731;DHT22;18310;55.586;12.286;2022-10-13T03:41:37;14.20;71.50
31731;DHT22;18310;55.586;12.286;2022-10-13T03:44:41;14.20;71.60
31731;DHT22;18310;55.586;12.286;2022-10-13T03:47:44;14.20;71.60
31731;DHT22;18310;55.586;12.286;2022-10-13T03:50:49;14.20;71.50
31731;DHT22;18310;55.586;12.286;2022-10-13T03:53:52;14.30;71.60
31731;DHT22;18310;55.586;12.286;2022-10-13T03:56:55;14.20;71.60
31731;DHT22;18310;55.586;12.286;2022-10-13T03:59:59;14.20;71.60
31731;DHT22;18310;55.586;12.286;2022-10-13T04:03:02;14.10;71.60
31731;DHT22;18310;55.586;12.286;2022-10-13T04:06:08;14.30;71.60
31731;DHT22;18310;55.586;12.286;2022-10-13T04:09:11;14.30;71.60
31731;DHT22;18310;55.586;12.286;2022-10-13T04:12:14;14.30;71.50
31731;DHT22;18310;55.586;12.286;2022-10-13T04:15:21;14.40;71.50
31731;DHT22;18310;55.586;12.286;2022-10-13T04:18:25;14.40;71.50
31731;DHT22;18310;55.586;12.286;2022-10-13T04:21:30;14.40;71.50
31731;DHT22;18310;55.586;12.286;2022-10-13T04:24:36;14.50;71.50
31731;DHT22;18310;55.586;12.286;2022-10-13T04:27:39;14.40;71.40
31731;DHT22;18310;55.586;12.286;2022-10-13T04:30:42;14.50;71.40
31731;DHT22;18310;55.586;12.286;2022-10-13T04:33:50;14.50;71.40
31731;DHT22;18310;55.586;12.286;2022-10-13T04:36:56;14.50;71.30
31731;DHT22;18310;55.586;12.286;2022-10-13T04:39:59;14.50;71.40
31731;DHT22;18310;55.586;12.286;2022-10-13T04:43:02;14.50;71.30
31731;DHT22;18310;55.586;12.286;2022-10-13T04:46:08;14.50;71.80
31731;DHT22;18310;55.586;12.286;2022-10-13T04:49:16;14.50;71.20
31731;DHT22;18310;55.586;12.286;2022-10-13T04:52:22;14.50;71.10
31731;DHT22;18310;55.586;12.286;2022-10-13T04:55:25;14.50;71.10
31731;DHT22;18310;55.586;12.286;2022-10-13T04:58:30;14.50;71.20
31731;DHT22;18310;55.586;12.286;2022-10-13T05:01:34;14.50;71.10
31731;DHT22;18310;55.586;12.286;2022-10-13T05:04:37;14.50;71.20
31731;DHT22;18310;55.586;12.286;2022-10-13T05:07:41;14.50;71.10
31731;DHT22;18310;55.586;12.286;2022-10-13T05:10:52;14.50;71.10
31731;DHT22;18310;55.586;12.286;2022-10-13T05:13:56;14.50;71.70
31731;DHT22;18310;55.586;12.286;2022-10-13T05:17:00;14.50;71.10
31731;DHT22;18310;55.586;12.286;2022-10-13T05:20:04;14.60;71.20
31731;DHT22;18310;55.586;12.286;2022-10-13T05:23:09;14.50;70.90
31731;DHT22;18310;55.586;12.286;2022-10-13T05:26:14;14.50;70.90
31731;DHT22;18310;55.586;12.286;2022-10-13T05:29:18;14.50;70.90
31731;DHT22;18310;55.586;12.286;2022-10-13T05:32:21;14.50;70.80
31731;DHT22;18310;55.586;12.286;2022-10-13T05:35:25;14.60;70.90
31731;DHT22;18310;55.586;12.286;2022-10-13T05:38:29;14.40;70.70
31731;DHT22;18310;55.586;12.286;2022-10-13T05:41:33;14.40;70.80
31731;DHT22;18310;55.586;12.286;2022-10-13T05:44:36;14.40;70.70
31731;DHT22;18310;55.586;12.286;2022-10-13T05:47:39;14.40;70.70
31731;DHT22;18310;55.586;12.286;2022-10-13T05:50:42;14.30;70.70
31731;DHT22;18310;55.586;12.286;2022-10-13T05:53:50;13.90;70.50
31731;DHT22;18310;55.586;12.286;2022-10-13T05:57:01;14.40;70.80
31731;DHT22;18310;55.586;12.286;2022-10-13T06:00:09;14.40;70.90
31731;DHT22;18310;55.586;12.286;2022-10-13T06:03:16;14.30;70.90
31731;DHT22;18310;55.586;12.286;2022-10-13T06:06:23;14.40;71.10
31731;DHT22;18310;55.586;12.286;2022-10-13T06:09:35;14.40;71.10
31731;DHT22;18310;55.586;12.286;2022-10-13T06:12:39;14.40;71.00
31731;DHT22;18310;55.586;12.286;2022-10-13T06:15:42;14.50;71.10
31731;DHT22;18310;55.586;12.286;2022-10-13T06:18:46;14.50;71.10
31731;DHT22;18310;55.586;12.286;2022-10-13T06:21:49;14.60;71.10
31731;DHT22;18310;55.586;12.286;2022-10-13T06:24:55;14.60;71.00
31731;DHT22;18310;55.586;12.286;2022-10-13T06:27:58;14.60;70.80
31731;DHT22;18310;55.586;12.286;2022-10-13T06:31:03;14.60;70.70
31731;DHT22;18310;55.586;12.286;2022-10-13T06:34:08;14.70;70.80
31731;DHT22;18310;55.586;12.286;2022-10-13T06:37:11;14.70;70.70
31731;DHT22;18310;55.586;12.286;2022-10-13T06:40:16;14.70;70.80
31731;DHT22;18310;55.586;12.286;2022-10-13T06:43:19;14.80;70.70
31731;DHT22;18310;55.586;12.286;2022-10-13T06:46:29;14.80;70.60
31731;DHT22;18310;55.586;12.286;2022-10-13T06:49:33;14.90;70.50
31731;DHT22;18310;55.586;12.286;2022-10-13T06:52:36;15.00;70.30
31731;DHT22;18310;55.586;12.286;2022-10-13T06:55:40;15.00;70.20
31731;DHT22;18310;55.586;12.286;2022-10-13T06:58:44;15.00;70.00
31731;DHT22;18310;55.586;12.286;2022-10-13T07:01:47;15.00;70.00
31731;DHT22;18310;55.586;12.286;2022-10-13T07:04:52;15.00;70.00
31731;DHT22;18310;55.586;12.286;2022-10-13T07:07:56;15.10;70.00
31731;DHT22;18310;55.586;12.286;2022-10-13T07:11:05;15.20;69.90
31731;DHT22;18310;55.586;12.286;2022-10-13T07:14:16;15.10;69.60
31731;DHT22;18310;55.586;12.286;2022-10-13T07:17:19;15.20;69.70
31731;DHT22;18310;55.586;12.286;2022-10-13T07:20:24;15.20;69.70
31731;DHT22;18310;55.586;12.286;2022-10-13T07:23:28;15.30;69.80
31731;DHT22;18310;55.586;12.286;2022-10-13T07:26:33;15.20;69.70
31731;DHT22;18310;55.586;12.286;2022-10-13T07:29:37;15.20;69.70
31731;DHT22;18310;55.586;12.286;2022-10-13T07:32:40;15.20;69.70
31731;DHT22;18310;55.586;12.286;2022-10-13T07:35:43;15.20;69.60
31731;DHT22;18310;55.586;12.286;2022-10-13T07:38:46;15.30;69.70
31731;DHT22;18310;55.586;12.286;2022-10-13T07:41:51;15.30;69.80
31731;DHT22;18310;55.586;12.286;2022-10-13T07:44:54;15.30;69.60
31731;DHT22;18310;55.586;12.286;2022-10-13T07:47:57;15.30;69.50
31731;DHT22;18310;55.586;12.286;2022-10-13T07:51:02;15.40;69.50
31731;DHT22;18310;55.586;12.286;2022-10-13T07:54:07;15.40;69.40
31731;DHT22;18310;55.586;12.286;2022-10-13T07:57:12;15.40;69.40
31731;DHT22;18310;55.586;12.286;2022-10-13T08:00:16;15.50;69.90
31731;DHT22;18310;55.586;12.286;2022-10-13T08:03:19;15.50;69.40
31731;DHT22;18310;55.586;12.286;2022-10-13T08:06:22;15.50;69.20
31731;DHT22;18310;55.586;12.286;2022-10-13T08:09:26;15.50;69.10
31731;DHT22;18310;55.586;12.286;2022-10-13T08:12:30;15.60;69.20
31731;DHT22;18310;55.586;12.286;2022-10-13T08:15:34;15.60;69.10
31731;DHT22;18310;55.586;12.286;2022-10-13T08:18:40;15.60;68.90
31731;DHT22;18310;55.586;12.286;2022-10-13T08:22:07;15.60;68.80
31731;DHT22;18310;55.586;12.286;2022-10-13T08:25:11;15.60;68.70
31731;DHT22;18310;55.586;12.286;2022-10-13T08:28:17;15.60;69.00
31731;DHT22;18310;55.586;12.286;2022-10-13T08:31:22;15.60;69.10
31731;DHT22;18310;55.586;12.286;2022-10-13T08:34:25;15.60;69.20
31731;DHT22;18310;55.586;12.286;2022-10-13T08:37:28;15.60;69.10
31731;DHT22;18310;55.586;12.286;2022-10-13T08:40:31;15.60;69.00
31731;DHT22;18310;55.586;12.286;2022-10-13T08:43:36;15.70;69.00
31731;DHT22;18310;55.586;12.286;2022-10-13T08:47:02;15.70;69.10
31731;DHT22;18310;55.586;12.286;2022-10-13T08:50:12;15.70;69.10
31731;DHT22;18310;55.586;12.286;2022-10-13T08:53:24;15.70;69.10
31731;DHT22;18310;55.586;12.286;2022-10-13T08:56:33;15.80;69.10
31731;DHT22;18310;55.586;12.286;2022-10-13T08:59:38;15.80;68.90
31731;DHT22;18310;55.586;12.286;2022-10-13T09:02:42;15.90;68.80
31731;DHT22;18310;55.586;12.286;2022-10-13T09:05:55;15.90;68.90
31731;DHT22;18310;55.586;12.286;2022-10-13T09:09:04;16.00;68.70
31731;DHT22;18310;55.586;12.286;2022-10-13T09:12:10;16.00;68.50
31731;DHT22;18310;55.586;12.286;2022-10-13T09:15:16;16.10;68.50
31731;DHT22;18310;55.586;12.286;2022-10-13T09:18:27;16.10;68.30
31731;DHT22;18310;55.586;12.286;2022-10-13T09:21:45;16.20;67.80
31731;DHT22;18310;55.586;12.286;2022-10-13T09:25:14;16.20;67.30
31731;DHT22;18310;55.586;12.286;2022-10-13T09:28:22;16.20;67.30
31731;DHT22;18310;55.586;12.286;2022-10-13T09:31:28;16.30;67.60
31731;DHT22;18310;55.586;12.286;2022-10-13T09:34:35;16.30;67.70
31731;DHT22;18310;55.586;12.286;2022-10-13T09:37:37;16.40;67.60
31731;DHT22;18310;55.586;12.286;2022-10-13T09:40:41;16.30;67.70
31731;DHT22;18310;55.586;12.286;2022-10-13T09:43:58;16.40;67.70
31731;DHT22;18310;55.586;12.286;2022-10-13T09:47:17;16.40;67.30
31731;DHT22;18310;55.586;12.286;2022-10-13T09:50:24;16.40;67.30
31731;DHT22;18310;55.586;12.286;2022-10-13T09:53:31;16.40;67.50
31731;DHT22;18310;55.586;12.286;2022-10-13T09:56:40;17.10;67.70
31731;DHT22;18310;55.586;12.286;2022-10-13T09:59:49;16.60;67.30
31731;DHT22;18310;55.586;12.286;2022-10-13T10:02:59;16.60;67.40
31731;DHT22;18310;55.586;12.286;2022-10-13T10:06:06;16.70;67.10
31731;DHT22;18310;55.586;12.286;2022-10-13T10:09:26;16.70;66.90
31731;DHT22;18310;55.586;12.286;2022-10-13T10:12:35;16.80;66.30
31731;DHT22;18310;55.586;12.286;2022-10-13T10:15:49;16.80;66.60
31731;DHT22;18310;55.586;12.286;2022-10-13T10:19:02;16.80;66.40
31731;DHT22;18310;55.586;12.286;2022-10-13T10:22:12;16.80;66.50
31731;DHT22;18310;55.586;12.286;2022-10-13T10:25:29;16.90;66.70
31731;DHT22;18310;55.586;12.286;2022-10-13T10:28:55;16.90;66.40
31731;DHT22;18310;55.586;12.286;2022-10-13T10:32:26;16.90;66.20
31731;DHT22;18310;55.586;12.286;2022-10-13T10:35:38;17.10;66.40
31731;DHT22;18310;55.586;12.286;2022-10-13T10:38:49;17.10;66.70
31731;DHT22;18310;55.586;12.286;2022-10-13T10:42:02;17.20;66.70
31731;DHT22;18310;55.586;12.286;2022-10-13T10:45:15;17.30;66.20
31731;DHT22;18310;55.586;12.286;2022-10-13T10:48:23;17.40;65.80
31731;DHT22;18310;55.586;12.286;2022-10-13T10:51:32;17.40;66.30
31731;DHT22;18310;55.586;12.286;2022-10-13T10:54:45;18.30;66.60
31731;DHT22;18310;55.586;12.286;2022-10-13T10:57:59;17.50;65.60
31731;DHT22;18310;55.586;12.286;2022-10-13T11:01:18;17.50;65.20
31731;DHT22;18310;55.586;12.286;2022-10-13T11:04:47;17.60;65.00
31731;DHT22;18310;55.586;12.286;2022-10-13T11:07:57;17.60;64.30
31731;DHT22;18310;55.586;12.286;2022-10-13T11:11:33;17.60;64.40
31731;DHT22;18310;55.586;12.286;2022-10-13T11:14:41;17.60;64.00
31731;DHT22;18310;55.586;12.286;2022-10-13T11:17:44;17.60;64.80
31731;DHT22;18310;55.586;12.286;2022-10-13T11:20:53;17.60;64.90
31731;DHT22;18310;55.586;12.286;2022-10-13T11:24:01;17.50;64.50
31731;DHT22;18310;55.586;12.286;2022-10-13T11:27:18;17.60;64.30
31731;DHT22;18310;55.586;12.286;2022-10-13T11:30:44;17.60;63.60
31731;DHT22;18310;55.586;12.286;2022-10-13T11:33:53;17.50;63.60
31731;DHT22;18310;55.586;12.286;2022-10-13T11:37:01;17.50;64.50
31731;DHT22;18310;55.586;12.286;2022-10-13T11:40:23;17.60;64.40
31731;DHT22;18310;55.586;12.286;2022-10-13T11:43:45;17.50;64.30
31731;DHT22;18310;55.586;12.286;2022-10-13T11:47:06;17.60;64.40
31731;DHT22;18310;55.586;12.286;2022-10-13T11:50:23;18.40;64.40
31731;DHT22;18310;55.586;12.286;2022-10-13T11:53:33;17.60;64.30
31731;DHT22;18310;55.586;12.286;2022-10-13T11:56:47;17.60;64.40
31731;DHT22;18310;55.586;12.286;2022-10-13T11:59:54;17.60;64.30
31731;DHT22;18310;55.586;12.286;2022-10-13T12:03:26;17.60;64.20
31731;DHT22;18310;55.586;12.286;2022-10-13T12:06:33;17.50;63.60
31731;DHT22;18310;55.586;12.286;2022-10-13T12:09:46;17.60;64.20
31731;DHT22;18310;55.586;12.286;2022-10-13T12:12:53;17.50;64.20
31731;DHT22;18310;55.586;12.286;2022-10-13T12:15:57;17.60;64.40
31731;DHT22;18310;55.586;12.286;2022-10-13T12:19:20;17.60;64.30
31731;DHT22;18310;55.586;12.286;2022-10-13T12:22:25;17.60;64.00
31731;DHT22;18310;55.586;12.286;2022-10-13T12:25:29;17.60;64.50
31731;DHT22;18310;55.586;12.286;2022-10-13T12:28:47;17.70;64.40
31731;DHT22;18310;55.586;12.286;2022-10-13T12:31:54;17.70;64.10
31731;DHT22;18310;55.586;12.286;2022-10-13T12:35:11;17.70;64.20
31731;DHT22;18310;55.586;12.286;2022-10-13T12:38:20;17.70;63.70
31731;DHT22;18310;55.586;12.286;2022-10-13T12:41:26;17.90;63.60
31731;DHT22;18310;55.586;12.286;2022-10-13T12:44:32;17.90;63.40
31731;DHT22;18310;55.586;12.286;2022-10-13T12:47:38;18.00;63.00
31731;DHT22;18310;55.586;12.286;2022-10-13T12:50:47;18.00;62.40
31731;DHT22;18310;55.586;12.286;2022-10-13T12:53:50;18.10;62.50
31731;DHT22;18310;55.586;12.286;2022-10-13T12:56:56;18.10;61.60
31731;DHT22;18310;55.586;12.286;2022-10-13T13:00:16;18.10;61.10
31731;DHT22;18310;55.586;12.286;2022-10-13T13:03:26;18.20;61.20
31731;DHT22;18310;55.586;12.286;2022-10-13T13:06:59;18.30;60.50
31731;DHT22;18310;55.586;12.286;2022-10-13T13:10:15;18.20;58.90
31731;DHT22;18310;55.586;12.286;2022-10-13T13:13:21;18.20;59.20
31731;DHT22;18310;55.586;12.286;2022-10-13T13:16:27;18.20;59.90
31731;DHT22;18310;55.586;12.286;2022-10-13T13:19:30;18.10;59.60
31731;DHT22;18310;55.586;12.286;2022-10-13T13:22:34;18.20;59.80
31731;DHT22;18310;55.586;12.286;2022-10-13T13:25:42;18.20;59.70
31731;DHT22;18310;55.586;12.286;2022-10-13T13:28:46;18.20;59.70
31731;DHT22;18310;55.586;12.286;2022-10-13T13:31:52;18.20;59.20
31731;DHT22;18310;55.586;12.286;2022-10-13T13:34:55;18.30;59.20
31731;DHT22;18310;55.586;12.286;2022-10-13T13:37:58;18.20;58.70
31731;DHT22;18310;55.586;12.286;2022-10-13T13:41:01;18.20;58.70
31731;DHT22;18310;55.586;12.286;2022-10-13T13:44:04;18.20;58.60
31731;DHT22;18310;55.586;12.286;2022-10-13T13:47:17;18.20;58.70
31731;DHT22;18310;55.586;12.286;2022-10-13T13:50:23;18.20;58.40
31731;DHT22;18310;55.586;12.286;2022-10-13T13:53:53;18.20;58.90
31731;DHT22;18310;55.586;12.286;2022-10-13T13:56:56;18.10;58.20
31731;DHT22;18310;55.586;12.286;2022-10-13T13:59:59;18.10;58.90
31731;DHT22;18310;55.586;12.286;2022-10-13T14:03:04;18.00;58.90
31731;DHT22;18310;55.586;12.286;2022-10-13T14:06:07;18.00;58.80
31731;DHT22;18310;55.586;12.286;2022-10-13T14:09:10;18.00;58.90
31731;DHT22;18310;55.586;12.286;2022-10-13T14:12:13;17.90;58.80
31731;DHT22;18310;55.586;12.286;2022-10-13T14:15:16;17.90;59.00
31731;DHT22;18310;55.586;12.286;2022-10-13T14:18:21;17.80;59.00
31731;DHT22;18310;55.586;12.286;2022-10-13T14:21:24;17.80;59.00
31731;DHT22;18310;55.586;12.286;2022-10-13T14:24:53;17.80;59.10
31731;DHT22;18310;55.586;12.286;2022-10-13T14:27:56;17.80;58.80
31731;DHT22;18310;55.586;12.286;2022-10-13T14:30:59;17.80;59.30
31731;DHT22;18310;55.586;12.286;2022-10-13T14:34:03;17.80;59.30
31731;DHT22;18310;55.586;12.286;2022-10-13T14:37:06;17.80;59.20
31731;DHT22;18310;55.586;12.286;2022-10-13T14:40:09;17.80;59.40
31731;DHT22;18310;55.586;12.286;2022-10-13T14:43:12;17.70;59.40
31731;DHT22;18310;55.586;12.286;2022-10-13T14:46:15;17.70;59.50
31731;DHT22;18310;55.586;12.286;2022-10-13T14:49:19;17.60;59.70
31731;DHT22;18310;55.586;12.286;2022-10-13T14:52:22;17.60;59.90
31731;DHT22;18310;55.586;12.286;2022-10-13T14:55:25;17.70;60.00
31731;DHT22;18310;55.586;12.286;2022-10-13T14:58:28;17.50;60.20
31731;DHT22;18310;55.586;12.286;2022-10-13T15:01:31;17.40;60.60
31731;DHT22;18310;55.586;12.286;2022-10-13T15:04:36;17.40;60.80
31731;DHT22;18310;55.586;12.286;2022-10-13T15:07:39;17.40;61.10
31731;DHT22;18310;55.586;12.286;2022-10-13T15:10:42;17.40;61.20
31731;DHT22;18310;55.586;12.286;2022-10-13T15:13:45;17.40;61.30
31731;DHT22;18310;55.586;12.286;2022-10-13T15:16:48;17.40;61.30
31731;DHT22;18310;55.586;12.286;2022-10-13T15:19:52;17.40;61.10
31731;DHT22;18310;55.586;12.286;2022-10-13T15:22:55;17.40;61.00
31731;DHT22;18310;55.586;12.286;2022-10-13T15:25:59;17.40;61.10
31731;DHT22;18310;55.586;12.286;2022-10-13T15:29:03;17.40;61.10
31731;DHT22;18310;55.586;12.286;2022-10-13T15:32:07;17.40;61.70
31731;DHT22;18310;55.586;12.286;2022-10-13T15:35:13;17.40;61.20
31731;DHT22;18310;55.586;12.286;2022-10-13T15:38:16;17.40;61.40
31731;DHT22;18310;55.586;12.286;2022-10-13T15:41:36;17.40;61.50
31731;DHT22;18310;55.586;12.286;2022-10-13T15:44:39;17.30;61.60
31731;DHT22;18310;55.586;12.286;2022-10-13T15:48:02;17.40;61.80
31731;DHT22;18310;55.586;12.286;2022-10-13T15:51:13;17.60;61.90
31731;DHT22;18310;55.586;12.286;2022-10-13T15:54:18;17.40;61.90
31731;DHT22;18310;55.586;12.286;2022-10-13T15:57:22;17.30;62.10
31731;DHT22;18310;55.586;12.286;2022-10-13T16:00:25;17.30;62.40
31731;DHT22;18310;55.586;12.286;2022-10-13T16:03:29;17.30;63.20
31731;DHT22;18310;55.586;12.286;2022-10-13T16:06:34;17.40;63.00
31731;DHT22;18310;55.586;12.286;2022-10-13T16:09:38;17.20;63.90
31731;DHT22;18310;55.586;12.286;2022-10-13T16:12:41;17.10;63.50
31731;DHT22;18310;55.586;12.286;2022-10-13T16:15:56;17.10;63.70
31731;DHT22;18310;55.586;12.286;2022-10-13T16:18:59;17.10;63.70
31731;DHT22;18310;55.586;12.286;2022-10-13T16:22:03;17.00;63.50
31731;DHT22;18310;55.586;12.286;2022-10-13T16:25:07;17.20;63.90
31731;DHT22;18310;55.586;12.286;2022-10-13T16:28:11;16.90;63.60
31731;DHT22;18310;55.586;12.286;2022-10-13T16:31:16;16.90;63.80
31731;DHT22;18310;55.586;12.286;2022-10-13T16:34:19;16.80;63.90
31731;DHT22;18310;55.586;12.286;2022-10-13T16:37:27;16.80;64.10
31731;DHT22;18310;55.586;12.286;2022-10-13T16:40:30;16.70;64.50
31731;DHT22;18310;55.586;12.286;2022-10-13T16:43:33;16.70;64.10
31731;DHT22;18310;55.586;12.286;2022-10-13T16:46:36;16.60;64.50
31731;DHT22;18310;55.586;12.286;2022-10-13T16:49:39;16.50;64.60
31731;DHT22;18310;55.586;12.286;2022-10-13T16:52:43;16.50;65.00
31731;DHT22;18310;55.586;12.286;2022-10-13T16:55:48;16.40;65.50
31731;DHT22;18310;55.586;12.286;2022-10-13T16:58:53;16.40;65.70
31731;DHT22;18310;55.586;12.286;2022-10-13T17:01:57;16.30;66.00
31731;DHT22;18310;55.586;12.286;2022-10-13T17:05:00;16.20;66.20
31731;DHT22;18310;55.586;12.286;2022-10-13T17:08:05;16.20;66.40
31731;DHT22;18310;55.586;12.286;2022-10-13T17:11:09;16.20;66.90
31731;DHT22;18310;55.586;12.286;2022-10-13T17:14:17;16.20;67.00
31731;DHT22;18310;55.586;12.286;2022-10-13T17:17:20;16.10;67.10
31731;DHT22;18310;55.586;12.286;2022-10-13T17:20:25;16.10;67.20
31731;DHT22;18310;55.586;12.286;2022-10-13T17:23:30;16.10;67.50
31731;DHT22;18310;55.586;12.286;2022-10-13T17:26:35;16.10;67.80
31731;DHT22;18310;55.586;12.286;2022-10-13T17:29:37;16.00;67.70
31731;DHT22;18310;55.586;12.286;2022-10-13T17:32:40;16.00;67.80
31731;DHT22;18310;55.586;12.286;2022-10-13T17:35:45;16.00;68.00
31731;DHT22;18310;55.586;12.286;2022-10-13T17:38:50;15.90;68.20
31731;DHT22;18310;55.586;12.286;2022-10-13T17:41:55;15.90;68.60
31731;DHT22;18310;55.586;12.286;2022-10-13T17:44:58;15.90;68.60
31731;DHT22;18310;55.586;12.286;2022-10-13T17:48:01;15.90;68.80
31731;DHT22;18310;55.586;12.286;2022-10-13T17:51:07;15.90;68.90
31731;DHT22;18310;55.586;12.286;2022-10-13T17:54:13;15.80;69.10
31731;DHT22;18310;55.586;12.286;2022-10-13T17:57:17;15.80;69.70
31731;DHT22;18310;55.586;12.286;2022-10-13T18:00:20;15.80;69.40
31731;DHT22;18310;55.586;12.286;2022-10-13T18:03:25;15.80;69.40
31731;DHT22;18310;55.586;12.286;2022-10-13T18:06:29;15.80;69.50
31731;DHT22;18310;55.586;12.286;2022-10-13T18:09:40;15.70;69.60
31731;DHT22;18310;55.586;12.286;2022-10-13T18:12:43;15.70;69.80
31731;DHT22;18310;55.586;12.286;2022-10-13T18:16:07;15.70;69.80
31731;DHT22;18310;55.586;12.286;2022-10-13T18:19:12;15.70;71.00
31731;DHT22;18310;55.586;12.286;2022-10-13T18:22:15;15.60;70.00
31731;DHT22;18310;55.586;12.286;2022-10-13T18:25:20;15.60;70.10
31731;DHT22;18310;55.586;12.286;2022-10-13T18:28:23;15.80;70.40
31731;DHT22;18310;55.586;12.286;2022-10-13T18:31:28;15.60;70.40
31731;DHT22;18310;55.586;12.286;2022-10-13T18:34:32;15.60;70.40
31731;DHT22;18310;55.586;12.286;2022-10-13T18:37:35;15.60;70.60
31731;DHT22;18310;55.586;12.286;2022-10-13T18:40:40;15.60;70.60
31731;DHT22;18310;55.586;12.286;2022-10-13T18:43:43;15.60;70.80
31731;DHT22;18310;55.586;12.286;2022-10-13T18:46:48;15.60;70.70
31731;DHT22;18310;55.586;12.286;2022-10-13T18:49:52;15.60;71.10
31731;DHT22;18310;55.586;12.286;2022-10-13T18:52:57;15.60;70.80
31731;DHT22;18310;55.586;12.286;2022-10-13T18:56:03;15.60;71.00
31731;DHT22;18310;55.586;12.286;2022-10-13T18:59:09;15.60;71.10
31731;DHT22;18310;55.586;12.286;2022-10-13T19:02:14;14.50;70.40
31731;DHT22;18310;55.586;12.286;2022-10-13T19:05:17;15.60;70.90
31731;DHT22;18310;55.586;12.286;2022-10-13T19:08:20;15.60;71.40
31731;DHT22;18310;55.586;12.286;2022-10-13T19:11:26;15.60;70.70
31731;DHT22;18310;55.586;12.286;2022-10-13T19:14:31;15.60;71.00
31731;DHT22;18310;55.586;12.286;2022-10-13T19:17:34;15.60;70.80
31731;DHT22;18310;55.586;12.286;2022-10-13T19:20:37;15.60;70.80
31731;DHT22;18310;55.586;12.286;2022-10-13T19:23:41;15.60;70.80
31731;DHT22;18310;55.586;12.286;2022-10-13T19:26:45;15.60;71.40
31731;DHT22;18310;55.586;12.286;2022-10-13T19:29:50;15.70;70.70